Cochabamba Jorge Wilstermann International Airport

Current Flights

Info
Name: Cochabamba Jorge Wilstermann International Airport
Identifier:  CBB/SLCB
Local Time:  24. Jun 22:15
City
Cochabamba
  Bolivia

Flights per Day
62 flights
Distance: 342km (212mi)
Punctuality
92% (4 flights per day delayed)
Delay Average: 189535 minutes
Current Weather
 11 C (Humidity: 40%)
  3kt (5km/h / 3mph) from 130°
  9km (6 mi.)
 METAR SLCB 250100Z 13003KT 9999 NSC 11/M02 Q1020

Current Delays

Departures
N/A
Arrivals
N/A

Destinations

Top Destinations
Airport Flights
per week
Seats
per week
  Santa Cruz (VVI) 91 7,421 13 1060
  La Paz (LPB) 88 7,829 12 1118
  Trinidad (TDD) 24 1,904 3 272
  Tarija (TJA) 17 1,760 2 251
  Sucre (SRE) 15 1,202 2 171
  Sao Paulo (GRU) 3 63 0 9
  Madrid (MAD) 0 208 0 29
  Cobija (CIJ) 0 63 0 9
  Mexico City (MEX) 0 60 0 8

Airlines & Planes

Top Airlines
Airline Flights
per Day
Seats
per Day
  Boliviana de Aviación (BoA) 26 2,201
  EcoJet 8 723
  American Airlines 0 5
Top Plane Types
Model Flights Seats
Boeing B737-300 21.6/day 1,836/day 1836.4666666666667
British-Aerospace Avro RJ-85 8.1/day 723/day 723.4333333333333
Boeing B737-800 2.3/day - 0
Boeing B737-700 2.0/day 267/day 267.46666666666664
Boeing B767-300 0.4/day 97/day 97.36666666666666
Beech 1900D 0.2/day - 0
Boeing B757-200 0.0/day 5/day 5.866666666666667